createdAt,value
2023-05-17T00:00:36.439Z,5.53
2023-05-17T00:02:41.295Z,5.03
2023-05-17T00:04:46.191Z,4.95
2023-05-17T00:06:47.861Z,5.00
2023-05-17T00:08:49.330Z,5.10
2023-05-17T00:10:53.401Z,4.93
2023-05-17T00:12:57.785Z,5.53
2023-05-17T00:14:59.378Z,4.90
2023-05-17T00:17:03.741Z,5.13
2023-05-17T00:19:23.994Z,4.60
2023-05-17T00:21:28.494Z,4.93
2023-05-17T00:23:29.935Z,4.72
2023-05-17T00:25:31.588Z,5.07
2023-05-17T00:27:35.688Z,5.25
2023-05-17T00:29:39.914Z,5.13
2023-05-17T00:31:44.312Z,5.25
2023-05-17T00:35:52.470Z,4.57
2023-05-17T00:38:12.587Z,4.20
2023-05-17T00:40:15.287Z,4.15
2023-05-17T00:42:35.255Z,4.60
2023-05-17T00:46:40.720Z,3.90
2023-05-17T00:48:42.766Z,5.07
2023-05-17T00:50:47.920Z,5.03
2023-05-17T00:52:52.077Z,4.80
2023-05-17T00:54:53.708Z,5.15
2023-05-17T00:58:59.968Z,4.93
2023-05-17T01:01:04.290Z,4.80
2023-05-17T01:03:06.014Z,4.15
2023-05-17T01:05:07.833Z,3.92
2023-05-17T01:07:09.868Z,4.82
2023-05-17T01:09:14.479Z,4.40
2023-05-17T01:11:31.574Z,4.97
2023-05-17T01:13:48.069Z,4.45
2023-05-17T01:15:55.681Z,4.85
2023-05-17T01:18:03.313Z,4.28
2023-05-17T01:20:06.538Z,4.57
2023-05-17T01:22:23.362Z,4.57
2023-05-17T01:24:30.364Z,4.25
2023-05-17T01:26:44.083Z,4.22
2023-05-17T01:28:47.342Z,3.95
2023-05-17T01:30:51.170Z,4.10
2023-05-17T01:32:55.840Z,4.47
2023-05-17T01:35:00.351Z,4.55
2023-05-17T01:37:04.988Z,5.25
2023-05-17T01:41:14.111Z,3.80
2023-05-17T01:43:35.522Z,4.20
2023-05-17T01:45:44.021Z,4.57
2023-05-17T01:48:09.707Z,3.65
2023-05-17T01:50:12.827Z,4.13
2023-05-17T01:52:15.213Z,5.80
2023-05-17T01:54:23.281Z,4.18
2023-05-17T01:56:28.833Z,4.40
2023-05-17T01:58:30.949Z,4.72
2023-05-17T02:00:52.673Z,4.30
2023-05-17T02:02:54.161Z,3.80
2023-05-17T02:04:58.579Z,3.83
2023-05-17T02:07:03.368Z,4.50
2023-05-17T02:09:07.375Z,4.00
2023-05-17T02:11:08.936Z,3.95
2023-05-17T02:13:28.679Z,5.32
2023-05-17T02:15:30.371Z,4.05
2023-05-17T02:17:32.134Z,3.83
2023-05-17T02:19:36.822Z,4.15
2023-05-17T02:21:41.509Z,4.35
2023-05-17T02:23:43.053Z,4.10
2023-05-17T02:25:44.857Z,4.03
2023-05-17T02:27:46.382Z,3.90
2023-05-17T02:29:47.880Z,4.50
2023-05-17T02:31:49.936Z,5.53
2023-05-17T02:33:51.573Z,4.47
2023-05-17T02:35:55.828Z,5.28
2023-05-17T02:38:00.111Z,4.63
2023-05-17T02:40:09.321Z,4.25
2023-05-17T02:42:17.661Z,4.35
2023-05-17T02:44:27.938Z,4.57
2023-05-17T02:46:38.442Z,4.18
2023-05-17T02:48:49.137Z,4.53
2023-05-17T02:50:56.645Z,4.03
2023-05-17T02:53:09.877Z,4.45
2023-05-17T02:55:21.853Z,3.92
2023-05-17T02:57:33.659Z,3.78
2023-05-17T02:59:39.996Z,3.75
2023-05-17T03:01:53.770Z,4.28
2023-05-17T03:04:07.011Z,3.83
2023-05-17T03:06:17.181Z,3.03
2023-05-17T03:08:30.407Z,3.95
2023-05-17T03:10:36.237Z,3.10
2023-05-17T03:12:56.312Z,4.18
2023-05-17T03:14:57.791Z,4.00
2023-05-17T03:16:59.360Z,3.33
2023-05-17T03:19:01.106Z,3.50
2023-05-17T03:21:21.371Z,3.58
2023-05-17T03:23:41.477Z,3.97
2023-05-17T03:26:01.384Z,4.45
2023-05-17T03:28:05.473Z,3.15
2023-05-17T03:32:14.050Z,3.47
2023-05-17T03:34:18.262Z,4.57
2023-05-17T03:36:22.359Z,3.45
2023-05-17T03:38:23.837Z,3.78
2023-05-17T03:40:28.033Z,4.07
2023-05-17T03:42:29.483Z,3.33
2023-05-17T03:44:30.948Z,3.65
2023-05-17T03:46:35.066Z,3.63
2023-05-17T03:48:55.467Z,4.07
2023-05-17T03:51:00.724Z,2.88
2023-05-17T03:53:04.902Z,3.97
2023-05-17T03:55:09.561Z,3.55
2023-05-17T03:57:11.187Z,4.53
2023-05-17T03:59:31.211Z,3.05
2023-05-17T04:01:35.781Z,3.50
2023-05-17T04:03:37.465Z,3.60
2023-05-17T04:05:42.027Z,3.70
2023-05-17T04:07:43.721Z,3.67
2023-05-17T04:09:47.933Z,3.97
2023-05-17T04:11:49.449Z,4.28
2023-05-17T04:13:51.619Z,4.93
2023-05-17T04:15:55.719Z,3.60
2023-05-17T04:18:00.060Z,3.50
2023-05-17T04:20:06.639Z,4.43
2023-05-17T04:22:26.768Z,3.72
2023-05-17T04:24:30.789Z,3.65
2023-05-17T04:26:32.343Z,3.60
2023-05-17T04:28:36.902Z,3.45
2023-05-17T04:30:45.016Z,2.95
2023-05-17T04:32:50.343Z,3.92
2023-05-17T04:34:56.292Z,3.67
2023-05-17T04:37:01.160Z,3.80
2023-05-17T04:39:03.727Z,3.92
2023-05-17T04:41:05.964Z,3.45
2023-05-17T04:43:10.749Z,3.78
2023-05-17T04:45:16.205Z,3.00
2023-05-17T04:47:37.462Z,3.33
2023-05-17T04:49:41.752Z,3.58
2023-05-17T04:51:43.231Z,3.30
2023-05-17T04:55:48.711Z,3.55
2023-05-17T04:57:50.214Z,3.92
2023-05-17T05:01:58.150Z,3.72
2023-05-17T05:04:07.078Z,3.58
2023-05-17T05:06:08.896Z,3.38
2023-05-17T05:08:10.876Z,3.50
2023-05-17T05:10:12.304Z,4.07
2023-05-17T05:14:20.627Z,3.50
2023-05-17T05:16:22.222Z,4.18
2023-05-17T05:18:26.626Z,3.22
2023-05-17T05:20:31.658Z,3.20
2023-05-17T05:22:33.096Z,4.05
2023-05-17T05:24:38.021Z,3.85
2023-05-17T05:26:42.871Z,3.30
2023-05-17T05:28:47.484Z,3.50
2023-05-17T05:30:49.021Z,3.53
2023-05-17T05:32:53.565Z,3.55
2023-05-17T05:35:13.855Z,4.25
2023-05-17T05:37:19.361Z,3.90
2023-05-17T05:39:23.516Z,3.33
2023-05-17T05:41:43.772Z,4.10
2023-05-17T05:45:49.613Z,3.47
2023-05-17T05:47:56.112Z,3.83
2023-05-17T05:52:06.925Z,3.60
2023-05-17T05:54:09.975Z,4.57
2023-05-17T05:56:18.618Z,3.85
2023-05-17T05:58:28.350Z,4.20
2023-05-17T06:00:32.037Z,4.00
2023-05-17T06:02:35.786Z,4.18
2023-05-17T06:04:45.141Z,3.70
2023-05-17T06:06:52.100Z,4.20
2023-05-17T06:08:57.074Z,3.33
2023-05-17T06:13:25.374Z,3.75
2023-05-17T06:15:35.272Z,3.05
2023-05-17T06:17:42.135Z,3.38
2023-05-17T06:21:47.403Z,3.30
2023-05-17T06:23:48.983Z,3.47
2023-05-17T06:25:53.084Z,3.78
2023-05-17T06:27:57.197Z,2.40
2023-05-17T06:29:58.667Z,2.65
2023-05-17T06:32:03.231Z,2.40
2023-05-17T06:34:04.873Z,4.70
2023-05-17T06:36:09.487Z,3.42
2023-05-17T06:38:16.843Z,2.67
2023-05-17T06:40:18.519Z,2.50
2023-05-17T06:42:22.582Z,3.42
2023-05-17T06:44:27.131Z,2.75
2023-05-17T06:46:28.773Z,2.97
2023-05-17T06:48:30.305Z,2.70
2023-05-17T06:50:34.794Z,2.92
2023-05-17T06:52:38.811Z,2.80
2023-05-17T06:54:43.146Z,2.75
2023-05-17T06:56:47.563Z,2.90
2023-05-17T06:58:51.666Z,2.65
2023-05-17T07:00:55.806Z,2.70
2023-05-17T07:03:00.045Z,3.13
2023-05-17T07:05:01.813Z,2.22
2023-05-17T07:07:06.294Z,2.40
2023-05-17T07:09:10.860Z,2.25
2023-05-17T07:11:30.763Z,2.67
2023-05-17T07:13:32.927Z,3.15
2023-05-17T07:15:37.712Z,2.80
2023-05-17T07:17:41.865Z,2.70
2023-05-17T07:19:43.462Z,3.05
2023-05-17T07:21:45.354Z,3.05
2023-05-17T07:23:47.003Z,2.88
2023-05-17T07:25:48.604Z,2.47
2023-05-17T07:27:50.178Z,2.67
2023-05-17T07:29:54.822Z,3.03
2023-05-17T07:32:16.061Z,4.13
2023-05-17T07:34:20.562Z,2.45
2023-05-17T07:36:22.093Z,2.85
2023-05-17T07:38:23.651Z,3.67
2023-05-17T07:40:28.284Z,2.33
2023-05-17T07:42:29.750Z,2.30
2023-05-17T07:44:31.373Z,2.55
2023-05-17T07:46:32.918Z,2.13
2023-05-17T07:48:37.759Z,2.28
2023-05-17T07:50:44.096Z,2.72
2023-05-17T07:52:48.350Z,2.65
2023-05-17T07:54:49.826Z,3.05
2023-05-17T07:57:09.957Z,2.10
2023-05-17T07:59:11.646Z,2.78
2023-05-17T08:01:16.128Z,2.58
2023-05-17T08:03:36.741Z,2.65
2023-05-17T08:05:41.003Z,3.17
2023-05-17T08:07:45.547Z,2.53
2023-05-17T08:09:47.046Z,2.95
2023-05-17T08:11:51.436Z,2.72
2023-05-17T08:13:56.222Z,2.83
2023-05-17T08:16:12.889Z,2.55
2023-05-17T08:18:18.959Z,2.03
2023-05-17T08:20:23.243Z,2.33
2023-05-17T08:22:24.888Z,3.00
2023-05-17T08:24:31.667Z,2.60
2023-05-17T08:26:33.328Z,2.22
2023-05-17T08:28:34.816Z,2.90
2023-05-17T08:30:39.363Z,2.58
2023-05-17T08:32:41.018Z,2.45
2023-05-17T08:34:45.763Z,2.22
2023-05-17T08:36:47.630Z,2.70
2023-05-17T08:38:49.145Z,2.10
2023-05-17T08:40:56.495Z,2.25
2023-05-17T08:43:01.667Z,2.20
2023-05-17T08:45:03.423Z,2.75
2023-05-17T08:47:06.610Z,2.30
2023-05-17T08:51:28.638Z,2.08
2023-05-17T08:53:51.055Z,2.25
2023-05-17T08:56:02.767Z,2.33
2023-05-17T08:58:16.653Z,2.58
2023-05-17T09:00:29.575Z,3.28
2023-05-17T09:02:46.515Z,2.25
2023-05-17T09:05:02.928Z,2.47
2023-05-17T09:07:23.087Z,2.45
2023-05-17T09:09:43.419Z,2.47
2023-05-17T09:11:52.476Z,2.95
2023-05-17T09:14:00.879Z,2.70
2023-05-17T09:16:18.876Z,2.40
2023-05-17T09:18:48.943Z,2.70
2023-05-17T09:21:07.620Z,3.10
2023-05-17T09:23:20.695Z,2.50
2023-05-17T09:25:39.718Z,3.10
2023-05-17T09:27:51.994Z,2.22
2023-05-17T09:30:12.929Z,2.33
2023-05-17T09:32:21.039Z,2.38
2023-05-17T09:34:42.017Z,2.80
2023-05-17T09:36:46.909Z,2.30
2023-05-17T09:38:55.242Z,1.90
2023-05-17T09:40:56.772Z,2.95
2023-05-17T09:42:58.888Z,2.60
2023-05-17T09:45:01.914Z,2.80
2023-05-17T09:47:03.468Z,2.55
2023-05-17T09:49:05.089Z,2.40
2023-05-17T09:51:09.683Z,3.17
2023-05-17T09:53:30.516Z,2.58
2023-05-17T09:55:32.650Z,2.30
2023-05-17T09:57:37.861Z,2.45
2023-05-17T09:59:42.446Z,2.15
2023-05-17T10:01:47.709Z,2.53
2023-05-17T10:03:51.486Z,2.63
2023-05-17T10:05:54.074Z,2.83
2023-05-17T10:07:56.476Z,3.00
2023-05-17T10:09:58.462Z,2.30
2023-05-17T10:12:00.161Z,2.78
2023-05-17T10:14:10.463Z,3.03
2023-05-17T10:16:14.914Z,2.05
2023-05-17T10:18:19.549Z,2.90
2023-05-17T10:20:24.556Z,2.55
2023-05-17T10:22:45.513Z,2.20
2023-05-17T10:25:06.487Z,2.42
2023-05-17T10:27:08.641Z,2.95
2023-05-17T10:29:13.275Z,2.85
2023-05-17T10:31:14.954Z,3.00
2023-05-17T10:33:17.615Z,3.00
2023-05-17T10:35:19.646Z,3.00
2023-05-17T10:37:21.636Z,3.22
2023-05-17T10:39:24.073Z,3.70
2023-05-17T10:41:27.555Z,2.60
2023-05-17T10:45:33.711Z,2.90
2023-05-17T10:47:35.655Z,2.58
2023-05-17T10:49:37.804Z,2.47
2023-05-17T10:51:41.865Z,2.58
2023-05-17T10:54:03.869Z,3.42
2023-05-17T10:56:05.442Z,2.65
2023-05-17T10:58:19.970Z,2.78
2023-05-17T11:00:22.125Z,2.67
2023-05-17T11:02:45.098Z,2.53
2023-05-17T11:04:52.616Z,2.85
2023-05-17T11:07:16.790Z,2.80
2023-05-17T11:09:22.041Z,3.10
2023-05-17T11:11:25.207Z,3.13
2023-05-17T11:13:30.607Z,2.88
2023-05-17T11:15:33.230Z,3.33
2023-05-17T11:17:37.285Z,3.72
2023-05-17T11:19:51.124Z,3.83
2023-05-17T11:21:52.950Z,3.17
2023-05-17T11:23:56.416Z,2.92
2023-05-17T11:26:16.197Z,3.42
2023-05-17T11:28:22.409Z,3.67
2023-05-17T11:30:26.959Z,3.22
2023-05-17T11:32:29.257Z,3.50
2023-05-17T11:34:34.441Z,2.75
2023-05-17T11:37:04.729Z,3.00
2023-05-17T11:39:10.247Z,2.95
2023-05-17T11:43:27.365Z,3.20
2023-05-17T11:45:29.135Z,3.33
2023-05-17T11:47:39.648Z,2.90
2023-05-17T11:49:42.723Z,2.88
2023-05-17T11:51:47.171Z,2.95
2023-05-17T11:53:49.322Z,3.33
2023-05-17T11:55:51.824Z,2.88
2023-05-17T11:57:54.624Z,3.38
2023-05-17T11:59:59.806Z,2.97
2023-05-17T12:02:04.013Z,3.13
2023-05-17T12:04:08.592Z,3.40
2023-05-17T12:06:14.789Z,3.83
2023-05-17T12:08:53.391Z,3.35
2023-05-17T12:11:21.953Z,3.10
2023-05-17T12:13:48.048Z,3.10
2023-05-17T12:16:22.269Z,3.42
2023-05-17T12:18:49.676Z,3.47
2023-05-17T12:21:14.817Z,3.25
2023-05-17T12:23:44.162Z,3.83
2023-05-17T12:25:51.214Z,3.15
2023-05-17T12:28:26.446Z,3.03
2023-05-17T12:30:32.263Z,3.70
2023-05-17T12:32:37.979Z,3.13
2023-05-17T12:34:48.182Z,3.10
2023-05-17T12:37:00.374Z,3.42
2023-05-17T12:39:11.410Z,3.35
2023-05-17T12:41:17.800Z,4.05
2023-05-17T12:43:24.374Z,2.85
2023-05-17T12:45:28.432Z,3.63
2023-05-17T12:47:50.938Z,3.42
2023-05-17T12:49:55.094Z,3.30
2023-05-17T12:51:56.846Z,3.63
2023-05-17T12:54:01.457Z,3.72
2023-05-17T12:56:14.477Z,3.60
2023-05-17T12:58:15.928Z,3.42
2023-05-17T13:00:21.367Z,4.03
2023-05-17T13:02:25.877Z,4.00
2023-05-17T13:04:34.296Z,3.70
2023-05-17T13:06:45.274Z,3.97
2023-05-17T13:08:57.973Z,3.50
2023-05-17T13:11:14.655Z,3.75
2023-05-17T13:13:20.225Z,4.13
2023-05-17T13:15:31.244Z,3.38
2023-05-17T13:17:36.840Z,4.68
2023-05-17T13:19:39.415Z,3.92
2023-05-17T13:21:41.156Z,4.28
2023-05-17T13:24:01.174Z,3.97
2023-05-17T13:26:02.655Z,4.18
2023-05-17T13:28:06.749Z,3.40
2023-05-17T13:30:11.624Z,3.65
2023-05-17T13:32:16.049Z,3.63
2023-05-17T13:34:23.204Z,3.83
2023-05-17T13:36:24.700Z,3.97
2023-05-17T13:38:26.311Z,3.35
2023-05-17T13:40:28.330Z,3.40
2023-05-17T13:42:30.307Z,3.08
2023-05-17T13:44:31.943Z,3.97
2023-05-17T13:46:36.563Z,3.05
2023-05-17T13:48:39.789Z,3.58
2023-05-17T13:50:43.378Z,2.80
2023-05-17T13:52:44.863Z,2.30
2023-05-17T13:54:46.420Z,3.92
2023-05-17T13:56:50.794Z,3.53
2023-05-17T13:58:52.588Z,2.97
2023-05-17T14:01:12.746Z,3.72
2023-05-17T14:03:16.933Z,2.90
2023-05-17T14:05:21.318Z,3.05
2023-05-17T14:07:23.505Z,2.80
2023-05-17T14:09:25.003Z,2.78
2023-05-17T14:11:29.226Z,2.60
2023-05-17T14:13:33.441Z,2.75
2023-05-17T14:15:38.528Z,3.15
2023-05-17T14:17:42.604Z,2.38
2023-05-17T14:19:44.384Z,3.85
2023-05-17T14:22:04.433Z,3.00
2023-05-17T14:24:24.396Z,2.92
2023-05-17T14:26:28.555Z,3.10
2023-05-17T14:28:30.004Z,3.28
2023-05-17T14:30:34.159Z,2.85
2023-05-17T14:32:36.418Z,2.30
2023-05-17T14:34:37.889Z,3.35
2023-05-17T14:36:39.494Z,2.80
2023-05-17T14:38:43.785Z,2.83
2023-05-17T14:40:47.966Z,2.80
2023-05-17T14:42:52.325Z,3.20
2023-05-17T14:44:53.849Z,2.53
2023-05-17T14:46:58.013Z,3.20
2023-05-17T14:49:02.479Z,3.35
2023-05-17T14:51:22.825Z,2.92
2023-05-17T14:53:29.592Z,2.60
2023-05-17T14:55:34.189Z,2.40
2023-05-17T14:57:54.834Z,3.17
2023-05-17T15:00:00.288Z,2.72
2023-05-17T15:02:05.248Z,3.42
2023-05-17T15:04:07.200Z,3.00
2023-05-17T15:06:11.857Z,3.55
2023-05-17T15:08:16.551Z,3.05
2023-05-17T15:10:39.114Z,2.40
2023-05-17T15:12:46.822Z,2.58
2023-05-17T15:14:48.738Z,2.80
2023-05-17T15:16:50.586Z,3.42
2023-05-17T15:18:52.543Z,2.53
2023-05-17T15:20:54.829Z,2.20
2023-05-17T15:22:58.824Z,2.22
2023-05-17T15:25:03.452Z,2.78
2023-05-17T15:27:07.475Z,2.30
2023-05-17T15:29:09.043Z,2.58
2023-05-17T15:31:12.639Z,2.30
2023-05-17T15:33:17.200Z,2.42
2023-05-17T15:35:19.074Z,2.65
2023-05-17T15:37:23.342Z,2.28
2023-05-17T15:39:24.872Z,2.78
2023-05-17T15:41:31.303Z,3.28
2023-05-17T15:43:35.569Z,2.25
2023-05-17T15:45:41.254Z,2.75
2023-05-17T15:47:43.917Z,2.85
2023-05-17T15:50:04.131Z,2.75
2023-05-17T15:52:05.893Z,2.58
2023-05-17T15:54:10.441Z,2.38
2023-05-17T15:56:11.963Z,2.25
2023-05-17T15:58:16.609Z,2.63
2023-05-17T16:00:18.209Z,2.78
2023-05-17T16:02:24.476Z,2.30
2023-05-17T16:04:29.154Z,2.70
2023-05-17T16:06:36.208Z,2.70
2023-05-17T16:08:42.935Z,2.53
2023-05-17T16:10:47.426Z,2.45
2023-05-17T16:12:50.535Z,2.28
2023-05-17T16:14:52.046Z,2.22
2023-05-17T16:16:53.579Z,2.70
2023-05-17T16:18:55.425Z,2.67
2023-05-17T16:21:03.163Z,3.10
2023-05-17T16:23:23.541Z,2.55
2023-05-17T16:25:25.119Z,2.40
2023-05-17T16:27:29.547Z,2.60
2023-05-17T16:29:33.290Z,2.50
2023-05-17T16:31:34.838Z,2.15
2023-05-17T16:33:36.684Z,3.38
2023-05-17T16:35:38.755Z,2.45
2023-05-17T16:37:41.579Z,2.63
2023-05-17T16:39:43.502Z,2.88
2023-05-17T16:41:45.648Z,2.75
2023-05-17T16:43:50.035Z,2.50
2023-05-17T16:45:54.233Z,2.60
2023-05-17T16:47:55.857Z,2.13
2023-05-17T16:50:03.306Z,2.47
2023-05-17T16:52:07.905Z,2.90
2023-05-17T16:54:09.555Z,2.60
2023-05-17T16:56:13.730Z,2.53
2023-05-17T16:58:15.356Z,3.05
2023-05-17T17:00:20.207Z,2.55
2023-05-17T17:02:24.509Z,2.25
2023-05-17T17:04:29.657Z,2.80
2023-05-17T17:06:33.948Z,2.70
2023-05-17T17:08:38.274Z,3.65
2023-05-17T17:10:58.267Z,2.53
2023-05-17T17:13:00.016Z,2.65
2023-05-17T17:15:07.827Z,2.80
2023-05-17T17:17:09.654Z,2.70
2023-05-17T17:19:15.099Z,2.25
2023-05-17T17:21:16.748Z,3.05
2023-05-17T17:23:20.786Z,2.97
2023-05-17T17:25:24.718Z,2.65
2023-05-17T17:27:28.946Z,3.60
2023-05-17T17:29:32.527Z,3.33
2023-05-17T17:31:37.203Z,3.78
2023-05-17T17:33:41.610Z,3.25
2023-05-17T17:35:43.041Z,3.20
2023-05-17T17:37:47.416Z,3.05
2023-05-17T17:39:48.994Z,3.00
2023-05-17T17:41:50.602Z,3.72
2023-05-17T17:43:52.035Z,3.15
2023-05-17T17:45:53.567Z,3.22
2023-05-17T17:47:55.060Z,2.92
2023-05-17T17:49:56.522Z,4.00
2023-05-17T17:52:16.412Z,3.60
2023-05-17T17:54:17.883Z,3.40
2023-05-17T17:56:25.846Z,3.30
2023-05-17T17:58:30.824Z,3.78
2023-05-17T18:00:50.844Z,3.65
2023-05-17T18:02:52.421Z,3.28
2023-05-17T18:04:57.030Z,3.38
2023-05-17T18:07:03.541Z,3.20
2023-05-17T18:09:25.406Z,3.58
2023-05-17T18:11:29.000Z,2.83
2023-05-17T18:13:35.912Z,2.95
2023-05-17T18:15:39.915Z,2.85
2023-05-17T18:18:02.182Z,3.78
2023-05-17T18:20:07.798Z,2.72
2023-05-17T18:22:11.464Z,3.63
2023-05-17T18:24:18.178Z,3.47
2023-05-17T18:26:22.127Z,3.17
2023-05-17T18:28:38.078Z,3.05
2023-05-17T18:30:45.551Z,3.47
2023-05-17T18:32:50.438Z,3.10
2023-05-17T18:34:56.522Z,3.67
2023-05-17T18:37:03.135Z,3.38
2023-05-17T18:39:05.705Z,4.72
2023-05-17T18:41:08.571Z,3.92
2023-05-17T18:43:13.121Z,3.47
2023-05-17T18:45:20.603Z,3.83
2023-05-17T18:47:28.775Z,4.07
2023-05-17T18:49:35.432Z,3.78
2023-05-17T18:51:41.758Z,3.83
2023-05-17T18:53:48.590Z,3.70
2023-05-17T18:55:52.163Z,3.22
2023-05-17T18:57:58.620Z,3.70
2023-05-17T19:00:05.879Z,3.20
2023-05-17T19:02:12.176Z,4.20
2023-05-17T19:04:15.710Z,3.40
2023-05-17T19:06:20.656Z,3.95
2023-05-17T19:08:24.093Z,3.72
2023-05-17T19:10:27.675Z,3.78
2023-05-17T19:12:32.402Z,4.70
2023-05-17T19:14:33.853Z,3.60
2023-05-17T19:16:56.908Z,3.72
2023-05-17T19:18:58.801Z,3.60
2023-05-17T19:21:19.083Z,3.78
2023-05-17T19:23:21.404Z,3.75
2023-05-17T19:25:22.893Z,3.28
2023-05-17T19:27:24.463Z,3.92
2023-05-17T19:29:27.428Z,4.20
2023-05-17T19:31:29.235Z,3.67
2023-05-17T19:33:34.272Z,4.30
2023-05-17T19:35:40.347Z,3.55
2023-05-17T19:37:44.747Z,3.83
2023-05-17T19:39:46.263Z,4.13
2023-05-17T19:43:51.715Z,3.85
2023-05-17T19:45:53.600Z,4.20
2023-05-17T19:47:56.270Z,4.38
2023-05-17T19:49:57.972Z,4.15
2023-05-17T19:52:01.138Z,4.07
2023-05-17T19:54:21.963Z,5.68
2023-05-17T19:56:26.310Z,4.38
2023-05-17T19:58:29.258Z,4.60
2023-05-17T20:00:32.743Z,3.88
2023-05-17T20:02:37.483Z,4.63
2023-05-17T20:04:41.992Z,4.50
2023-05-17T20:06:43.438Z,4.93
2023-05-17T20:08:45.114Z,5.53
2023-05-17T20:10:49.488Z,5.60
2023-05-17T20:12:54.247Z,5.32
2023-05-17T20:14:58.666Z,5.18
2023-05-17T20:17:00.695Z,5.03
2023-05-17T20:19:21.368Z,4.00
2023-05-17T20:21:26.444Z,5.22
2023-05-17T20:23:28.083Z,5.22
2023-05-17T20:25:30.013Z,4.05
2023-05-17T20:27:34.702Z,3.88
2023-05-17T20:29:36.498Z,4.65
2023-05-17T20:31:38.221Z,4.85
2023-05-17T20:33:44.185Z,4.60
2023-05-17T20:35:48.729Z,4.88
2023-05-17T20:39:57.401Z,4.40
2023-05-17T20:42:01.260Z,4.85
2023-05-17T20:44:02.820Z,4.43
2023-05-17T20:46:07.371Z,5.07
2023-05-17T20:48:27.405Z,5.80
2023-05-17T20:50:30.495Z,5.50
2023-05-17T20:52:39.446Z,4.50
2023-05-17T20:54:41.657Z,5.05
2023-05-17T20:56:43.276Z,5.25
2023-05-17T20:58:48.173Z,5.72
2023-05-17T21:00:50.141Z,4.93
2023-05-17T21:02:52.195Z,4.47
2023-05-17T21:04:56.685Z,5.20
2023-05-17T21:06:58.208Z,5.18
2023-05-17T21:09:02.269Z,4.90
2023-05-17T21:11:04.056Z,4.18
2023-05-17T21:13:09.614Z,5.25
2023-05-17T21:15:17.115Z,5.60
2023-05-17T21:17:22.047Z,4.95
2023-05-17T21:21:27.757Z,4.75
2023-05-17T21:23:47.862Z,4.38
2023-05-17T21:25:49.409Z,4.90
2023-05-17T21:27:52.232Z,3.90
2023-05-17T21:29:56.741Z,4.40
2023-05-17T21:32:02.010Z,5.22
2023-05-17T21:34:05.559Z,4.70
2023-05-17T21:36:07.824Z,5.88
2023-05-17T21:38:13.957Z,5.00
2023-05-17T21:40:17.355Z,5.03
2023-05-17T21:42:22.042Z,5.03
2023-05-17T21:44:23.541Z,4.60
2023-05-17T21:46:26.378Z,4.90
2023-05-17T21:48:46.882Z,4.93
2023-05-17T21:50:51.390Z,5.57
2023-05-17T21:52:56.106Z,5.22
2023-05-17T21:54:57.678Z,5.05
2023-05-17T21:57:03.081Z,4.68
2023-05-17T21:59:07.392Z,5.18
2023-05-17T22:01:09.026Z,5.28
2023-05-17T22:03:10.718Z,5.28
2023-05-17T22:05:15.545Z,5.50
2023-05-17T22:07:19.612Z,4.95
2023-05-17T22:09:40.041Z,5.28
2023-05-17T22:12:00.345Z,5.07
2023-05-17T22:14:01.965Z,5.32
2023-05-17T22:16:06.528Z,5.03
2023-05-17T22:18:12.749Z,5.18
2023-05-17T22:20:14.478Z,5.35
2023-05-17T22:22:20.623Z,4.88
2023-05-17T22:24:25.154Z,6.22
2023-05-17T22:26:29.312Z,4.43
2023-05-17T22:28:34.126Z,5.50
2023-05-17T22:30:54.202Z,5.68
2023-05-17T22:32:58.544Z,5.55
2023-05-17T22:35:03.374Z,6.65
2023-05-17T22:37:10.633Z,5.70
2023-05-17T22:39:12.146Z,4.57
2023-05-17T22:41:13.781Z,5.95
2023-05-17T22:43:18.102Z,5.75
2023-05-17T22:45:22.546Z,6.90
2023-05-17T22:47:26.638Z,5.45
2023-05-17T22:49:36.679Z,5.18
2023-05-17T22:51:38.926Z,5.70
2023-05-17T22:53:40.444Z,5.03
2023-05-17T22:56:00.712Z,5.93
2023-05-17T22:58:21.265Z,6.03
2023-05-17T23:00:22.759Z,5.03
2023-05-17T23:04:30.197Z,5.57
2023-05-17T23:06:34.304Z,6.97
2023-05-17T23:08:35.939Z,5.82
2023-05-17T23:10:38.645Z,5.63
2023-05-17T23:12:40.171Z,5.65
2023-05-17T23:14:45.317Z,5.50
2023-05-17T23:16:52.112Z,5.93
2023-05-17T23:18:57.968Z,5.43
2023-05-17T23:21:19.809Z,6.03
2023-05-17T23:23:24.063Z,5.95
2023-05-17T23:25:27.624Z,6.15
2023-05-17T23:27:32.610Z,6.40
2023-05-17T23:29:36.858Z,5.80
2023-05-17T23:31:41.499Z,5.80
2023-05-17T23:33:43.489Z,6.57
2023-05-17T23:35:47.073Z,6.07
2023-05-17T23:37:49.528Z,6.57
2023-05-17T23:39:51.238Z,7.80
2023-05-17T23:41:55.326Z,6.30
2023-05-17T23:44:00.552Z,6.43
2023-05-17T23:46:02.050Z,6.63
2023-05-17T23:48:09.602Z,5.97
2023-05-17T23:50:12.152Z,5.90
2023-05-17T23:52:18.865Z,5.82
2023-05-17T23:54:24.370Z,6.53
2023-05-17T23:56:26.634Z,7.40
2023-05-17T23:58:47.264Z,6.93
